createdAt,value
2023-04-17T00:01:26.560Z,97704.41
2023-04-17T00:03:53.211Z,97719.06
2023-04-17T00:06:19.906Z,97711.22
2023-04-17T00:08:46.838Z,97714.66
2023-04-17T00:11:13.539Z,97706.25
2023-04-17T00:13:40.194Z,97713.94
2023-04-17T00:16:07.486Z,97705.28
2023-04-17T00:18:34.022Z,97716.50
2023-04-17T00:21:00.708Z,97722.47
2023-04-17T00:23:27.311Z,97719.00
2023-04-17T00:25:53.838Z,97719.94
2023-04-17T00:28:20.650Z,97712.34
2023-04-17T00:30:47.207Z,97711.41
2023-04-17T00:33:13.722Z,97655.72
2023-04-17T00:35:40.255Z,97711.28
2023-04-17T00:38:09.130Z,97707.06
2023-04-17T00:40:35.951Z,97705.44
2023-04-17T00:43:02.824Z,97710.63
2023-04-17T00:45:30.017Z,97709.72
2023-04-17T00:47:57.391Z,97703.69
2023-04-17T00:50:23.982Z,97709.72
2023-04-17T00:52:50.886Z,97701.03
2023-04-17T00:55:17.661Z,97701.09
2023-04-17T00:57:44.222Z,97696.84
2023-04-17T01:00:11.459Z,97705.44
2023-04-17T01:02:38.113Z,97714.91
2023-04-17T01:05:05.128Z,97707.94
2023-04-17T01:07:31.637Z,97715.72
2023-04-17T01:09:58.210Z,97714.00
2023-04-17T01:12:25.175Z,97695.69
2023-04-17T01:14:54.907Z,97695.97
2023-04-17T01:17:21.974Z,97707.19
2023-04-17T01:19:49.214Z,97697.63
2023-04-17T01:22:16.573Z,97689.09
2023-04-17T01:24:43.291Z,97699.53
2023-04-17T01:27:09.862Z,97694.19
2023-04-17T01:29:36.358Z,97707.88
2023-04-17T01:32:02.904Z,97704.63
2023-04-17T01:34:29.386Z,97711.41
2023-04-17T01:36:56.051Z,97701.97
2023-04-17T01:39:22.635Z,97710.56
2023-04-17T01:41:49.233Z,97704.47
2023-04-17T01:44:15.824Z,97715.66
2023-04-17T01:46:42.472Z,97724.16
2023-04-17T01:49:09.232Z,97707.00
2023-04-17T01:51:35.878Z,97709.56
2023-04-17T01:54:02.396Z,97709.72
2023-04-17T01:56:29.209Z,97716.44
2023-04-17T01:58:55.777Z,97711.41
2023-04-17T02:01:22.398Z,97709.72
2023-04-17T02:03:49.076Z,97707.13
2023-04-17T02:06:16.308Z,97704.56
2023-04-17T02:08:42.962Z,97703.75
2023-04-17T02:11:10.269Z,97701.19
2023-04-17T02:13:36.844Z,97704.56
2023-04-17T02:16:03.457Z,97706.28
2023-04-17T02:18:30.030Z,97712.28
2023-04-17T02:20:56.598Z,97702.97
2023-04-17T02:23:23.114Z,97713.16
2023-04-17T02:25:50.082Z,97718.25
2023-04-17T02:28:16.794Z,97709.72
2023-04-17T02:30:43.406Z,97715.72
2023-04-17T02:33:10.338Z,97719.94
2023-04-17T02:35:36.876Z,97721.66
2023-04-17T02:38:03.492Z,97714.72
2023-04-17T02:40:30.010Z,97721.66
2023-04-17T02:42:56.828Z,97720.00
2023-04-17T02:45:23.331Z,97715.72
2023-04-17T02:47:50.099Z,97720.88
2023-04-17T02:50:16.769Z,97719.13
2023-04-17T02:52:43.261Z,97732.56
2023-04-17T02:55:09.912Z,97717.38
2023-04-17T02:57:36.402Z,97717.38
2023-04-17T03:00:07.857Z,97712.16
2023-04-17T03:02:34.582Z,97709.66
2023-04-17T03:05:04.224Z,97708.00
2023-04-17T03:07:30.922Z,97715.66
2023-04-17T03:09:57.580Z,97717.31
2023-04-17T03:12:24.182Z,97714.78
2023-04-17T03:14:50.946Z,97713.94
2023-04-17T03:17:17.654Z,97718.22
2023-04-17T03:19:44.151Z,97717.31
2023-04-17T03:22:12.758Z,97720.69
2023-04-17T03:24:41.299Z,97719.88
2023-04-17T03:27:07.830Z,97723.31
2023-04-17T03:29:34.389Z,97724.16
2023-04-17T03:32:00.971Z,97724.09
2023-04-17T03:34:29.031Z,97725.84
2023-04-17T03:36:55.875Z,97721.50
2023-04-17T03:39:22.492Z,97706.59
2023-04-17T03:41:49.001Z,97729.25
2023-04-17T03:44:17.279Z,97724.84
2023-04-17T03:46:43.832Z,97719.88
2023-04-17T03:49:10.598Z,97723.25
2023-04-17T03:51:37.334Z,97718.22
2023-04-17T03:54:03.922Z,97732.69
2023-04-17T03:56:30.547Z,97725.75
2023-04-17T03:58:57.070Z,97731.81
2023-04-17T04:01:28.120Z,97730.13
2023-04-17T04:03:55.460Z,97742.91
2023-04-17T04:06:22.493Z,97736.00
2023-04-17T04:08:49.460Z,97741.22
2023-04-17T04:11:16.288Z,97734.31
2023-04-17T04:13:42.822Z,97747.28
2023-04-17T04:16:09.677Z,97743.06
2023-04-17T04:18:36.546Z,97737.97
2023-04-17T04:21:03.131Z,97684.00
2023-04-17T04:23:30.654Z,97745.75
2023-04-17T04:25:58.053Z,97749.19
2023-04-17T04:28:24.598Z,97738.91
2023-04-17T04:30:53.044Z,97733.56
2023-04-17T04:33:21.032Z,97687.38
2023-04-17T04:35:48.232Z,97747.47
2023-04-17T04:38:15.425Z,97755.13
2023-04-17T04:40:43.814Z,97737.72
2023-04-17T04:43:10.533Z,97734.34
2023-04-17T04:45:37.135Z,97745.63
2023-04-17T04:48:03.821Z,97740.28
2023-04-17T04:50:30.951Z,97744.50
2023-04-17T04:52:57.459Z,97740.16
2023-04-17T04:55:24.537Z,97746.81
2023-04-17T04:57:53.400Z,97764.84
2023-04-17T05:00:20.534Z,97772.44
2023-04-17T05:02:47.252Z,97774.88
2023-04-17T05:05:14.092Z,97770.47
2023-04-17T05:07:40.894Z,97773.03
2023-04-17T05:10:07.964Z,97772.09
2023-04-17T05:12:35.231Z,97781.44
2023-04-17T05:15:01.922Z,97783.09
2023-04-17T05:17:28.484Z,97776.28
2023-04-17T05:19:55.011Z,97776.94
2023-04-17T05:22:21.782Z,97779.66
2023-04-17T05:24:48.397Z,97786.34
2023-04-17T05:27:14.910Z,97794.13
2023-04-17T05:29:41.443Z,97795.84
2023-04-17T05:32:08.116Z,97795.03
2023-04-17T05:34:34.860Z,97790.75
2023-04-17T05:37:01.444Z,97794.25
2023-04-17T05:39:28.015Z,97805.31
2023-04-17T05:41:54.532Z,97794.91
2023-04-17T05:44:21.060Z,97795.84
2023-04-17T05:46:47.537Z,97802.75
2023-04-17T05:49:14.028Z,97800.19
2023-04-17T05:51:40.623Z,97734.97
2023-04-17T05:54:07.166Z,97799.34
2023-04-17T05:56:33.675Z,97795.84
2023-04-17T05:59:00.306Z,97775.91
2023-04-17T06:01:26.827Z,97798.47
2023-04-17T06:03:53.583Z,97801.03
2023-04-17T06:06:20.384Z,97802.75
2023-04-17T06:08:46.883Z,97802.69
2023-04-17T06:11:15.698Z,97802.69
2023-04-17T06:13:42.368Z,97801.84
2023-04-17T06:16:08.922Z,97807.78
2023-04-17T06:18:35.614Z,97807.72
2023-04-17T06:21:02.184Z,97801.84
2023-04-17T06:23:28.729Z,97812.88
2023-04-17T06:25:55.221Z,97806.06
2023-04-17T06:28:21.812Z,97811.16
2023-04-17T06:30:48.766Z,97811.84
2023-04-17T06:33:15.356Z,97811.03
2023-04-17T06:35:41.922Z,97813.72
2023-04-17T06:38:09.034Z,97818.00
2023-04-17T06:40:35.613Z,97806.13
2023-04-17T06:43:02.137Z,97800.84
2023-04-17T06:45:28.675Z,97807.06
2023-04-17T06:47:55.298Z,97805.19
2023-04-17T06:50:21.842Z,97804.50
2023-04-17T06:52:48.373Z,97802.88
2023-04-17T06:55:14.935Z,97802.88
2023-04-17T06:57:41.544Z,97797.84
2023-04-17T07:00:08.733Z,97805.59
2023-04-17T07:02:35.498Z,97794.69
2023-04-17T07:05:02.207Z,97798.06
2023-04-17T07:07:30.757Z,97737.28
2023-04-17T07:09:57.520Z,97797.47
2023-04-17T07:12:24.047Z,97798.38
2023-04-17T07:14:51.195Z,97803.47
2023-04-17T07:17:18.046Z,97794.28
2023-04-17T07:19:44.676Z,97808.75
2023-04-17T07:22:11.182Z,97812.25
2023-04-17T07:24:38.964Z,97806.03
2023-04-17T07:27:07.310Z,97806.03
2023-04-17T07:29:33.883Z,97807.72
2023-04-17T07:32:00.588Z,97811.19
2023-04-17T07:34:27.249Z,97820.53
2023-04-17T07:36:53.891Z,97818.78
2023-04-17T07:39:20.551Z,97817.06
2023-04-17T07:41:47.107Z,97813.50
2023-04-17T07:44:13.720Z,97815.13
2023-04-17T07:46:41.315Z,97824.66
2023-04-17T07:49:11.481Z,97815.88
2023-04-17T07:51:41.019Z,97828.88
2023-04-17T07:54:07.711Z,97833.97
2023-04-17T07:56:34.629Z,97833.13
2023-04-17T07:59:01.239Z,97839.06
2023-04-17T08:01:27.983Z,97827.00
2023-04-17T08:03:55.642Z,97833.91
2023-04-17T08:06:22.316Z,97833.91
2023-04-17T08:08:48.838Z,97837.09
2023-04-17T08:11:15.564Z,97833.66
2023-04-17T08:13:42.162Z,97839.66
2023-04-17T08:16:09.049Z,97836.28
2023-04-17T08:18:37.519Z,97835.38
2023-04-17T08:21:04.439Z,97841.25
2023-04-17T08:23:31.040Z,97825.41
2023-04-17T08:25:58.324Z,97842.91
2023-04-17T08:28:25.129Z,97849.66
2023-04-17T08:30:51.929Z,97848.78
2023-04-17T08:33:18.721Z,97850.41
2023-04-17T08:35:45.376Z,97856.31
2023-04-17T08:38:14.156Z,97857.13
2023-04-17T08:40:47.081Z,97850.25
2023-04-17T08:43:18.789Z,97847.63
2023-04-17T08:45:56.686Z,97843.19
2023-04-17T08:48:23.573Z,97843.19
2023-04-17T08:50:51.488Z,97852.66
2023-04-17T08:53:18.519Z,97842.28
2023-04-17T08:55:45.461Z,97851.59
2023-04-17T08:58:12.688Z,97847.31
2023-04-17T09:00:40.904Z,97858.41
2023-04-17T09:03:09.174Z,97854.13
2023-04-17T09:05:38.961Z,97847.97
2023-04-17T09:08:13.155Z,97864.34
2023-04-17T09:10:49.236Z,97861.72
2023-04-17T09:13:20.829Z,97841.69
2023-04-17T09:15:48.699Z,97863.38
2023-04-17T09:18:25.847Z,97857.25
2023-04-17T09:20:52.487Z,97860.78
2023-04-17T09:23:19.115Z,97860.66
2023-04-17T09:25:46.191Z,97867.50
2023-04-17T09:28:14.515Z,97857.91
2023-04-17T09:30:41.295Z,97862.28
2023-04-17T09:33:09.615Z,97860.53
2023-04-17T09:35:40.078Z,97854.63
2023-04-17T09:38:07.159Z,97852.03
2023-04-17T09:40:41.245Z,97855.44
2023-04-17T09:43:09.890Z,97849.41
2023-04-17T09:45:39.257Z,97837.44
2023-04-17T09:48:07.390Z,97836.53
2023-04-17T09:50:35.005Z,97846.94
2023-04-17T09:53:04.347Z,97849.59
2023-04-17T09:55:33.723Z,97849.66
2023-04-17T09:58:04.659Z,97847.06
2023-04-17T10:00:31.368Z,97848.84
2023-04-17T10:02:58.768Z,97853.19
2023-04-17T10:05:29.102Z,97853.25
2023-04-17T10:07:56.137Z,97854.19
2023-04-17T10:10:36.536Z,97835.22
2023-04-17T10:13:04.506Z,97840.69
2023-04-17T10:15:31.155Z,97840.63
2023-04-17T10:18:24.066Z,97835.72
2023-04-17T10:20:53.225Z,97832.38
2023-04-17T10:23:35.855Z,97839.28
2023-04-17T10:26:27.980Z,97827.41
2023-04-17T10:28:55.389Z,97821.28
2023-04-17T10:31:23.560Z,97821.41
2023-04-17T10:33:50.966Z,97818.88
2023-04-17T10:36:39.244Z,97813.97
2023-04-17T10:39:18.361Z,97813.13
2023-04-17T10:42:03.206Z,97811.47
2023-04-17T10:44:37.914Z,97795.03
2023-04-17T10:49:54.239Z,97814.13
2023-04-17T10:52:32.787Z,97808.22
2023-04-17T10:55:06.473Z,97807.44
2023-04-17T10:57:55.758Z,97811.72
2023-04-17T11:00:51.525Z,97811.72
2023-04-17T11:03:18.314Z,97813.44
2023-04-17T11:05:45.916Z,97808.22
2023-04-17T11:08:12.464Z,97808.22
2023-04-17T11:10:39.041Z,97810.78
2023-04-17T11:13:05.637Z,97800.38
2023-04-17T11:15:37.097Z,97817.81
2023-04-17T11:18:03.736Z,97812.53
2023-04-17T11:20:31.389Z,97811.91
2023-04-17T11:23:02.107Z,97798.91
2023-04-17T11:25:31.880Z,97803.34
2023-04-17T11:27:58.859Z,97796.47
2023-04-17T11:30:35.291Z,97818.72
2023-04-17T11:33:05.543Z,97803.34
2023-04-17T11:35:33.264Z,97801.75
2023-04-17T11:38:20.951Z,97790.59
2023-04-17T11:40:52.077Z,97795.03
2023-04-17T11:43:19.564Z,97791.59
2023-04-17T11:45:47.752Z,97789.81
2023-04-17T11:48:15.182Z,97792.53
2023-04-17T11:50:43.317Z,97781.28
2023-04-17T11:53:12.965Z,97791.66
2023-04-17T11:55:39.863Z,97799.38
2023-04-17T11:58:07.389Z,97786.44
2023-04-17T12:00:34.187Z,97795.94
2023-04-17T12:03:02.893Z,97789.88
2023-04-17T12:05:30.558Z,97800.25
2023-04-17T12:08:04.550Z,97795.81
2023-04-17T12:10:49.265Z,97793.38
2023-04-17T12:13:16.061Z,97796.88
2023-04-17T12:15:42.713Z,97768.28
2023-04-17T12:18:10.008Z,97794.28
2023-04-17T12:20:36.831Z,97780.47
2023-04-17T12:23:04.119Z,97793.50
2023-04-17T12:25:31.377Z,97775.34
2023-04-17T12:27:59.226Z,97794.41
2023-04-17T12:30:26.697Z,97807.03
2023-04-17T12:32:54.028Z,97816.47
2023-04-17T12:35:21.232Z,97790.84
2023-04-17T12:37:51.526Z,97803.66
2023-04-17T12:40:18.972Z,97797.59
2023-04-17T12:42:49.499Z,97774.38
2023-04-17T12:45:16.976Z,97795.94
2023-04-17T12:47:43.708Z,97797.72
2023-04-17T12:50:11.724Z,97794.16
2023-04-17T12:52:39.008Z,97789.13
2023-04-17T12:55:07.430Z,97790.06
2023-04-17T12:57:35.318Z,97790.00
2023-04-17T13:00:02.015Z,97786.56
2023-04-17T13:02:28.709Z,97801.88
2023-04-17T13:04:56.282Z,97790.13
2023-04-17T13:07:22.906Z,97790.13
2023-04-17T13:09:49.453Z,97780.69
2023-04-17T13:12:16.772Z,97778.09
2023-04-17T13:14:43.435Z,97785.06
2023-04-17T13:17:10.315Z,97780.63
2023-04-17T13:19:36.981Z,97765.91
2023-04-17T13:22:03.636Z,97785.00
2023-04-17T13:24:30.199Z,97786.69
2023-04-17T13:26:59.559Z,97771.97
2023-04-17T13:29:26.131Z,97784.13
2023-04-17T13:31:52.797Z,97789.34
2023-04-17T13:34:19.826Z,97791.03
2023-04-17T13:36:47.019Z,97800.47
2023-04-17T13:39:13.838Z,97784.94
2023-04-17T13:41:40.642Z,97779.78
2023-04-17T13:44:07.295Z,97785.16
2023-04-17T13:46:34.384Z,97782.53
2023-04-17T13:49:00.957Z,97781.56
2023-04-17T13:51:27.562Z,97785.00
2023-04-17T13:53:54.130Z,97769.53
2023-04-17T13:56:23.377Z,97779.84
2023-04-17T13:58:50.434Z,97786.81
2023-04-17T14:01:17.472Z,97780.81
2023-04-17T14:03:46.079Z,97796.22
2023-04-17T14:06:13.222Z,97806.44
2023-04-17T14:08:40.378Z,97804.41
2023-04-17T14:11:07.935Z,97817.50
2023-04-17T14:13:34.490Z,97792.53
2023-04-17T14:16:01.173Z,97808.97
2023-04-17T14:18:28.544Z,97812.41
2023-04-17T14:20:55.510Z,97813.28
2023-04-17T14:23:22.097Z,97805.63
2023-04-17T14:25:48.849Z,97788.41
2023-04-17T14:28:16.239Z,97794.44
2023-04-17T14:30:42.799Z,97789.28
2023-04-17T14:33:09.372Z,97786.69
2023-04-17T14:35:35.938Z,97792.94
2023-04-17T14:38:04.962Z,97788.47
2023-04-17T14:40:31.694Z,97786.91
2023-04-17T14:42:58.200Z,97765.44
2023-04-17T14:45:24.762Z,97764.53
2023-04-17T14:47:51.363Z,97775.91
2023-04-17T14:50:17.938Z,97777.63
2023-04-17T14:52:44.517Z,97768.00
2023-04-17T14:55:11.877Z,97754.34
2023-04-17T14:57:38.791Z,97770.81
2023-04-17T15:00:07.122Z,97756.13
2023-04-17T15:02:38.432Z,97763.16
2023-04-17T15:05:06.153Z,97770.81
2023-04-17T15:07:32.687Z,97766.53
2023-04-17T15:09:59.384Z,97771.69
2023-04-17T15:12:25.941Z,97759.75
2023-04-17T15:14:52.537Z,97763.97
2023-04-17T15:17:19.095Z,97755.25
2023-04-17T15:19:45.653Z,97760.34
2023-04-17T15:22:12.189Z,97768.22
2023-04-17T15:24:38.730Z,97775.06
2023-04-17T15:27:05.310Z,97759.56
2023-04-17T15:29:31.837Z,97775.06
2023-04-17T15:31:59.140Z,97769.09
2023-04-17T15:34:25.863Z,97768.16
2023-04-17T15:36:52.422Z,97774.13
2023-04-17T15:39:19.713Z,97769.03
2023-04-17T15:41:46.283Z,97769.84
2023-04-17T15:44:12.851Z,97768.16
2023-04-17T15:46:39.532Z,97768.94
2023-04-17T15:49:09.151Z,97761.22
2023-04-17T15:51:36.096Z,97754.28
2023-04-17T15:54:02.592Z,97750.97
2023-04-17T15:56:29.137Z,97757.84
2023-04-17T15:58:55.727Z,97756.94
2023-04-17T16:01:22.366Z,97745.63
2023-04-17T16:03:49.051Z,97747.41
2023-04-17T16:06:15.900Z,97755.19
2023-04-17T16:08:42.485Z,97748.22
2023-04-17T16:11:10.913Z,97756.88
2023-04-17T16:13:37.452Z,97761.09
2023-04-17T16:16:05.042Z,97750.03
2023-04-17T16:18:31.651Z,97749.13
2023-04-17T16:20:58.146Z,97692.38
2023-04-17T16:23:24.692Z,97760.16
2023-04-17T16:25:51.300Z,97754.22
2023-04-17T16:28:17.879Z,97753.34
2023-04-17T16:30:44.416Z,97759.19
2023-04-17T16:33:11.006Z,97760.94
2023-04-17T16:35:37.522Z,97768.59
2023-04-17T16:38:04.088Z,97771.19
2023-04-17T16:40:31.024Z,97775.47
2023-04-17T16:42:57.603Z,97765.97
2023-04-17T16:45:24.145Z,97768.63
2023-04-17T16:47:50.860Z,97764.25
2023-04-17T16:50:17.526Z,97772.94
2023-04-17T16:52:44.051Z,97777.19
2023-04-17T16:55:10.592Z,97767.66
2023-04-17T16:57:38.264Z,97782.34
2023-04-17T17:00:05.515Z,97775.41
2023-04-17T17:02:32.103Z,97785.75
2023-04-17T17:04:58.685Z,97770.25
2023-04-17T17:07:25.209Z,97780.56
2023-04-17T17:09:51.748Z,97781.53
2023-04-17T17:12:18.327Z,97781.53
2023-04-17T17:14:44.878Z,97787.50
2023-04-17T17:17:11.407Z,97770.00
2023-04-17T17:19:37.911Z,97785.81
2023-04-17T17:22:04.421Z,97784.94
2023-04-17T17:24:31.406Z,97790.91
2023-04-17T17:26:57.948Z,97790.91
2023-04-17T17:29:24.470Z,97788.34
2023-04-17T17:31:51.062Z,97789.16
2023-04-17T17:34:26.025Z,97787.50
2023-04-17T17:36:53.476Z,97782.34
2023-04-17T17:39:21.609Z,97787.44
2023-04-17T17:41:48.496Z,97788.28
2023-04-17T17:44:15.254Z,97785.75
2023-04-17T17:46:42.060Z,97772.56
2023-04-17T17:49:08.597Z,97779.72
2023-04-17T17:51:35.281Z,97794.28
2023-04-17T17:54:01.835Z,97789.16
2023-04-17T17:56:28.530Z,97796.00
2023-04-17T17:58:55.100Z,97792.59
2023-04-17T18:01:24.531Z,97792.72
2023-04-17T18:03:51.528Z,97806.28
2023-04-17T18:06:18.382Z,97802.03
2023-04-17T18:08:44.923Z,97805.41
2023-04-17T18:11:13.594Z,97796.13
2023-04-17T18:13:40.130Z,97796.94
2023-04-17T18:16:07.014Z,97801.00
2023-04-17T18:18:33.550Z,97805.47
2023-04-17T18:21:00.121Z,97786.13
2023-04-17T18:23:26.710Z,97811.38
2023-04-17T18:25:59.708Z,97803.59
2023-04-17T18:28:26.661Z,97803.66
2023-04-17T18:30:53.280Z,97810.47
2023-04-17T18:33:19.972Z,97813.88
2023-04-17T18:35:46.595Z,97808.63
2023-04-17T18:38:13.194Z,97821.53
2023-04-17T18:40:39.730Z,97811.19
2023-04-17T18:43:06.294Z,97824.81
2023-04-17T18:45:32.822Z,97833.44
2023-04-17T18:47:59.486Z,97823.16
2023-04-17T18:50:26.968Z,97823.94
2023-04-17T18:52:53.533Z,97831.66
2023-04-17T18:55:20.069Z,97833.38
2023-04-17T18:57:46.626Z,97843.31
2023-04-17T19:00:13.448Z,97816.00
2023-04-17T19:02:40.720Z,97835.91
2023-04-17T19:05:07.884Z,97841.81
2023-04-17T19:07:34.478Z,97835.84
2023-04-17T19:10:01.012Z,97846.06
2023-04-17T19:12:27.531Z,97841.75
2023-04-17T19:14:56.276Z,97837.34
2023-04-17T19:17:23.871Z,97832.06
2023-04-17T19:19:50.657Z,97846.00
2023-04-17T19:22:18.446Z,97845.94
2023-04-17T19:24:49.575Z,97849.41
2023-04-17T19:27:16.804Z,97839.91
2023-04-17T19:29:43.418Z,97845.94
2023-04-17T19:32:10.651Z,97847.59
2023-04-17T19:34:37.192Z,97848.56
2023-04-17T19:37:03.778Z,97847.66
2023-04-17T19:39:30.370Z,97839.91
2023-04-17T19:41:57.023Z,97852.78
2023-04-17T19:44:23.939Z,97851.09
2023-04-17T19:46:51.370Z,97851.09
2023-04-17T19:49:17.903Z,97846.00
2023-04-17T19:51:44.426Z,97837.16
2023-04-17T19:54:12.151Z,97846.72
2023-04-17T19:56:39.322Z,97829.25
2023-04-17T19:59:06.152Z,97844.28
2023-04-17T20:01:32.747Z,97838.16
2023-04-17T20:03:59.556Z,97782.56
2023-04-17T20:06:26.731Z,97835.72
2023-04-17T20:08:53.795Z,97831.47
2023-04-17T20:11:20.487Z,97845.13
2023-04-17T20:13:46.992Z,97842.56
2023-04-17T20:16:13.566Z,97838.28
2023-04-17T20:18:41.561Z,97840.91
2023-04-17T20:21:08.130Z,97834.91
2023-04-17T20:23:34.662Z,97844.28
2023-04-17T20:26:03.164Z,97835.72
2023-04-17T20:28:29.665Z,97839.13
2023-04-17T20:30:56.378Z,97838.34
2023-04-17T20:33:22.987Z,97831.47
2023-04-17T20:35:49.608Z,97818.34
2023-04-17T20:38:16.112Z,97836.59
2023-04-17T20:40:42.765Z,97834.84
2023-04-17T20:43:09.314Z,97840.78
2023-04-17T20:45:35.862Z,97843.31
2023-04-17T20:48:02.468Z,97834.84
2023-04-17T20:50:29.052Z,97837.22
2023-04-17T20:52:55.572Z,97839.06
2023-04-17T20:55:22.276Z,97840.78
2023-04-17T20:57:48.877Z,97850.03
2023-04-17T21:00:15.863Z,97824.41
2023-04-17T21:02:43.549Z,97836.47
2023-04-17T21:05:10.230Z,97838.94
2023-04-17T21:07:36.813Z,97835.63
2023-04-17T21:10:03.792Z,97835.63
2023-04-17T21:12:32.711Z,97818.31
2023-04-17T21:14:59.369Z,97836.47
2023-04-17T21:17:25.976Z,97835.69
2023-04-17T21:19:52.649Z,97831.34
2023-04-17T21:22:19.190Z,97822.78
2023-04-17T21:24:45.781Z,97840.72
2023-04-17T21:27:12.331Z,97833.91
2023-04-17T21:29:38.919Z,97832.19
2023-04-17T21:32:05.672Z,97836.47
2023-04-17T21:34:32.186Z,97839.78
2023-04-17T21:36:59.702Z,97831.19
2023-04-17T21:39:26.286Z,97840.72
2023-04-17T21:41:52.864Z,97833.78
2023-04-17T21:44:19.456Z,97819.13
2023-04-17T21:46:46.265Z,97841.56
2023-04-17T21:49:12.925Z,97831.28
2023-04-17T21:51:39.842Z,97827.06
2023-04-17T21:54:06.410Z,97830.44
2023-04-17T21:56:33.044Z,97813.06
2023-04-17T21:58:59.651Z,97825.09
2023-04-17T22:01:26.259Z,97827.91
2023-04-17T22:03:52.872Z,97817.50
2023-04-17T22:06:19.407Z,97821.91
2023-04-17T22:08:46.474Z,97820.13
2023-04-17T22:11:13.010Z,97821.84
2023-04-17T22:13:39.612Z,97825.28
2023-04-17T22:16:06.438Z,97822.66
2023-04-17T22:18:33.043Z,97820.19
2023-04-17T22:20:59.618Z,97819.31
2023-04-17T22:23:26.175Z,97821.78
2023-04-17T22:25:52.720Z,97828.69
2023-04-17T22:28:19.319Z,97821.03
2023-04-17T22:30:49.270Z,97824.41
2023-04-17T22:33:15.930Z,97826.06
2023-04-17T22:35:42.428Z,97821.72
2023-04-17T22:38:08.978Z,97833.72
2023-04-17T22:40:35.512Z,97825.16
2023-04-17T22:43:02.090Z,97830.38
2023-04-17T22:45:28.654Z,97829.50
2023-04-17T22:47:55.253Z,97828.69
2023-04-17T22:50:21.831Z,97824.34
2023-04-17T22:52:48.344Z,97844.75
2023-04-17T22:55:15.260Z,97830.31
2023-04-17T22:57:41.759Z,97830.31
2023-04-17T23:00:11.588Z,97826.94
2023-04-17T23:02:38.214Z,97820.19
2023-04-17T23:05:06.015Z,97814.13
2023-04-17T23:07:32.711Z,97817.50
2023-04-17T23:09:59.296Z,97813.13
2023-04-17T23:12:25.818Z,97829.50
2023-04-17T23:14:52.337Z,97818.47
2023-04-17T23:17:18.892Z,97820.19
2023-04-17T23:19:45.574Z,97818.41
2023-04-17T23:22:12.092Z,97826.06
2023-04-17T23:24:38.693Z,97814.91
2023-04-17T23:27:05.262Z,97816.69
2023-04-17T23:29:31.837Z,97811.59
2023-04-17T23:31:58.462Z,97818.41
2023-04-17T23:34:26.039Z,97825.22
2023-04-17T23:36:52.579Z,97815.81
2023-04-17T23:39:19.155Z,97803.75
2023-04-17T23:41:45.679Z,97809.78
2023-04-17T23:44:12.452Z,97809.03
2023-04-17T23:46:39.370Z,97811.59
2023-04-17T23:49:05.966Z,97806.50
2023-04-17T23:51:32.574Z,97794.56
2023-04-17T23:53:59.402Z,97807.38
2023-04-17T23:56:26.049Z,97809.91
2023-04-17T23:58:52.850Z,97798.78
